CheckWX is a tool to help pilots better visualize weather data.  It is not intended as a substitute for an official pre-flight weather briefing.

08:03:34 UTC

KLSF TAF
Lawson AAF (Fort Benning) Airport
Fort Benning(Columbus), Georgia, USA
TAF KLSF 190100Z 1901/2007 35006KT 9999 BKN200 QNH3020INS BECMG 1914/1915 03010G15KT 9999 FEW200 QNH3024INS BECMG 1923/1924 03009KT 9999 SKC QNH3028INS TX20/1921Z TN01/1912Z

Mar-19@
01:00 UTC

Mar-19 @ 01:00 UTC

Mar-19@
14:00 UTC

Mar-19 @ 14:00 UTC

TAF KLSF 190100Z 1901/2007 35006KT 9999 BKN200 QNH3020INS
Wind
  • 350° at 6 KTS
Cloud Levels
  • Broken at 20,000' AGL

Mar-19@
14:00 UTC

Mar-19 @ 14:00 UTC

Mar-19@
23:00 UTC

Mar-19 @ 23:00 UTC

BECMG 1914/1915 03010G15KT 9999 FEW200 QNH3024INS

Becoming

Becoming Conditions expected by Tue, Mar 19, 2019 @ 15:00 UTC

Wind
  • 030° at 10 KTS
  • {Gusting to 15 KTS
Cloud Levels
  • Few at 20,000' AGL

Mar-19@
23:00 UTC

Mar-19 @ 23:00 UTC

Mar-20@
07:00 UTC

Mar-20 @ 07:00 UTC

BECMG 1923/1924 03009KT 9999 SKC QNH3028INS TX20/1921Z TN01/1912Z

Becoming

Becoming Conditions expected by Wed, Mar 20, 2019 @ 00:00 UTC

Wind
  • 030° at 9 KTS
Cloud Levels
  • Clear skies